createdAt,value
2017-03-13T00:00:12.346Z,26.6
2017-03-13T00:00:40.678Z,26.63
2017-03-13T00:01:09.153Z,26.6
2017-03-13T00:01:37.455Z,26.61
2017-03-13T00:02:05.690Z,26.53
2017-03-13T00:02:33.931Z,26.56
2017-03-13T00:03:02.146Z,26.59
2017-03-13T00:03:30.523Z,26.53
2017-03-13T00:03:58.985Z,26.54
2017-03-13T00:04:27.300Z,26.54
2017-03-13T00:04:55.478Z,26.49
2017-03-13T00:05:23.685Z,26.52
2017-03-13T00:05:51.900Z,26.47
2017-03-13T00:06:20.128Z,26.39
2017-03-13T00:06:48.520Z,26.54
2017-03-13T00:07:16.949Z,26.41
2017-03-13T00:07:45.439Z,26.41
2017-03-13T00:08:13.808Z,26.42
2017-03-13T00:08:42.009Z,26.45
2017-03-13T00:09:10.493Z,26.37
2017-03-13T00:09:38.868Z,26.39
2017-03-13T00:10:07.126Z,26.38
2017-03-13T00:10:35.406Z,26.31
2017-03-13T00:11:03.573Z,26.42
2017-03-13T00:11:31.868Z,26.38
2017-03-13T00:12:00.129Z,26.41
2017-03-13T00:12:28.533Z,26.3
2017-03-13T00:12:56.713Z,26.37
2017-03-13T00:13:24.959Z,26.38
2017-03-13T00:13:53.292Z,26.32
2017-03-13T00:14:21.512Z,26.38
2017-03-13T00:14:49.821Z,26.34
2017-03-13T00:15:18.081Z,26.35
2017-03-13T00:15:46.297Z,26.35
2017-03-13T00:16:14.731Z,26.34
2017-03-13T00:16:43.086Z,26.3
2017-03-13T00:17:11.478Z,26.32
2017-03-13T00:17:39.774Z,26.27
2017-03-13T00:18:08.122Z,26.3
2017-03-13T00:18:36.294Z,26.35
2017-03-13T00:19:04.632Z,26.32
2017-03-13T00:19:32.876Z,26.37
2017-03-13T00:20:00.943Z,26.23
2017-03-13T00:20:29.485Z,26.27
2017-03-13T00:20:57.796Z,26.3
2017-03-13T00:21:26.210Z,26.24
2017-03-13T00:21:54.470Z,26.27
2017-03-13T00:22:22.923Z,26.19
2017-03-13T00:22:51.291Z,26.2
2017-03-13T00:23:19.595Z,26.3
2017-03-13T00:23:47.883Z,26.19
2017-03-13T00:24:16.310Z,26.19
2017-03-13T00:24:45.515Z,26.19
2017-03-13T00:25:13.937Z,26.17
2017-03-13T00:25:42.294Z,26.16
2017-03-13T00:26:10.621Z,26.16
2017-03-13T00:26:39.053Z,26.2
2017-03-13T00:27:08.270Z,26.19
2017-03-13T00:27:36.709Z,26.22
2017-03-13T00:28:04.928Z,26.16
2017-03-13T00:28:33.317Z,26.22
2017-03-13T00:29:01.682Z,26.19
2017-03-13T00:29:29.857Z,26.2
2017-03-13T00:29:58.241Z,26.17
2017-03-13T00:30:26.494Z,26.15
2017-03-13T00:30:54.857Z,26.2
2017-03-13T00:31:23.420Z,26.11
2017-03-13T00:31:51.913Z,26.15
2017-03-13T00:32:20.289Z,26.16
2017-03-13T00:32:48.487Z,26.06
2017-03-13T00:33:16.779Z,26.09
2017-03-13T00:33:44.968Z,26.09
2017-03-13T00:34:13.175Z,26.07
2017-03-13T00:34:41.775Z,26.06
2017-03-13T00:35:10.299Z,26.03
2017-03-13T00:35:38.525Z,25.99
2017-03-13T00:36:07.191Z,25.97
2017-03-13T00:36:35.661Z,25.97
2017-03-13T00:37:04.122Z,25.89
2017-03-13T00:37:32.455Z,26
2017-03-13T00:38:00.781Z,25.99
2017-03-13T00:38:29.173Z,25.96
2017-03-13T00:38:57.972Z,25.94
2017-03-13T00:39:26.513Z,25.93
2017-03-13T00:39:54.870Z,25.96
2017-03-13T00:40:23.149Z,26.01
2017-03-13T00:40:51.319Z,25.97
2017-03-13T00:41:19.687Z,25.96
2017-03-13T00:41:47.907Z,25.91
2017-03-13T00:42:16.301Z,25.99
2017-03-13T00:42:44.608Z,25.88
2017-03-13T00:43:12.781Z,25.93
2017-03-13T00:43:41.097Z,25.93
2017-03-13T00:44:09.482Z,25.89
2017-03-13T00:44:37.827Z,25.88
2017-03-13T00:45:06.111Z,25.91
2017-03-13T00:45:34.217Z,25.91
2017-03-13T00:46:02.457Z,25.86
2017-03-13T00:46:30.903Z,25.86
2017-03-13T00:46:59.245Z,25.81
2017-03-13T00:47:27.776Z,25.85
2017-03-13T00:47:56.480Z,25.86
2017-03-13T00:48:24.843Z,25.82
2017-03-13T00:48:53.934Z,25.85
2017-03-13T00:49:22.239Z,25.79
2017-03-13T00:49:50.598Z,25.86
2017-03-13T00:50:18.833Z,25.82
2017-03-13T00:50:47.079Z,25.75
2017-03-13T00:51:15.626Z,25.76
2017-03-13T00:51:43.963Z,25.78
2017-03-13T00:52:12.557Z,25.78
2017-03-13T00:52:40.940Z,25.78
2017-03-13T00:53:09.279Z,25.71
2017-03-13T00:53:37.469Z,25.69
2017-03-13T00:54:05.679Z,25.67
2017-03-13T00:54:34.064Z,25.7
2017-03-13T00:55:02.576Z,25.66
2017-03-13T00:55:31.816Z,25.66
2017-03-13T00:56:00.495Z,25.67
2017-03-13T00:56:29.012Z,25.64
2017-03-13T00:56:57.384Z,25.66
2017-03-13T00:57:25.742Z,25.7
2017-03-13T00:57:54.197Z,25.69
2017-03-13T00:58:22.791Z,25.66
2017-03-13T00:58:50.950Z,25.56
2017-03-13T00:59:19.266Z,25.56
2017-03-13T00:59:47.822Z,25.6
2017-03-13T01:00:16.013Z,25.63
2017-03-13T01:00:44.221Z,25.51
2017-03-13T01:01:12.493Z,25.67
2017-03-13T01:01:40.906Z,25.69
2017-03-13T01:02:09.350Z,25.6
2017-03-13T01:02:37.636Z,25.67
2017-03-13T01:03:05.943Z,25.71
2017-03-13T01:03:34.297Z,25.66
2017-03-13T01:04:02.595Z,25.67
2017-03-13T01:04:30.819Z,25.75
2017-03-13T01:04:59.038Z,25.71
2017-03-13T01:05:27.421Z,25.78
2017-03-13T01:05:55.892Z,25.76
2017-03-13T01:06:24.169Z,25.79
2017-03-13T01:06:52.502Z,25.85
2017-03-13T01:07:20.840Z,25.89
2017-03-13T01:07:49.260Z,25.81
2017-03-13T01:08:17.733Z,25.75
2017-03-13T01:08:46.087Z,25.88
2017-03-13T01:09:14.453Z,25.85
2017-03-13T01:09:42.669Z,25.93
2017-03-13T01:10:10.984Z,25.85
2017-03-13T01:10:39.446Z,25.89
2017-03-13T01:11:07.771Z,26
2017-03-13T01:11:36.148Z,25.94
2017-03-13T01:12:04.517Z,25.94
2017-03-13T01:12:32.980Z,25.94
2017-03-13T01:13:01.133Z,25.94
2017-03-13T01:13:29.432Z,25.96
2017-03-13T01:13:57.729Z,25.97
2017-03-13T01:14:25.984Z,26.03
2017-03-13T01:14:54.096Z,25.99
2017-03-13T01:15:22.521Z,26.01
2017-03-13T01:15:50.883Z,26
2017-03-13T01:16:19.281Z,26.07
2017-03-13T01:16:47.682Z,25.93
2017-03-13T01:17:16.143Z,26
2017-03-13T01:17:44.400Z,25.94
2017-03-13T01:18:12.648Z,25.99
2017-03-13T01:18:41.037Z,25.97
2017-03-13T01:19:09.292Z,25.94
2017-03-13T01:19:37.591Z,25.97
2017-03-13T01:20:05.899Z,26.01
2017-03-13T01:20:34.221Z,25.99
2017-03-13T01:21:02.610Z,26.01
2017-03-13T01:21:31.403Z,25.96
2017-03-13T01:21:59.758Z,25.97
2017-03-13T01:22:28.115Z,25.91
2017-03-13T01:22:56.381Z,25.96
2017-03-13T01:23:24.591Z,26.04
2017-03-13T01:23:52.821Z,26.06
2017-03-13T01:24:21.126Z,25.99
2017-03-13T01:24:49.504Z,25.94
2017-03-13T01:25:17.647Z,25.99
2017-03-13T01:25:45.983Z,26.03
2017-03-13T01:26:14.415Z,26
2017-03-13T01:26:42.784Z,26.04
2017-03-13T01:27:11.150Z,26
2017-03-13T01:27:39.291Z,26.03
2017-03-13T01:28:07.562Z,26.07
2017-03-13T01:28:35.945Z,26.06
2017-03-13T01:29:04.349Z,26.03
2017-03-13T01:29:32.513Z,26.01
2017-03-13T01:30:00.875Z,26.07
2017-03-13T01:30:29.243Z,26.03
2017-03-13T01:30:57.582Z,26.09
2017-03-13T01:31:25.967Z,26.07
2017-03-13T01:31:54.295Z,26.12
2017-03-13T01:32:22.537Z,26.12
2017-03-13T01:32:50.658Z,26.19
2017-03-13T01:33:18.812Z,26.11
2017-03-13T01:33:47.060Z,26.26
2017-03-13T01:34:15.483Z,26.19
2017-03-13T01:34:43.834Z,26.12
2017-03-13T01:35:12.128Z,26.15
2017-03-13T01:35:40.442Z,26.06
2017-03-13T01:36:08.683Z,26.11
2017-03-13T01:36:37.048Z,26.01
2017-03-13T01:37:05.488Z,25.91
2017-03-13T01:37:33.910Z,25.88
2017-03-13T01:38:02.144Z,25.86
2017-03-13T01:38:30.640Z,25.86
2017-03-13T01:38:58.988Z,25.85
2017-03-13T01:39:27.299Z,25.76
2017-03-13T01:39:55.655Z,25.74
2017-03-13T01:40:23.910Z,25.7
2017-03-13T01:40:52.602Z,25.71
2017-03-13T01:41:20.999Z,25.63
2017-03-13T01:41:49.451Z,25.7
2017-03-13T01:42:17.754Z,25.67
2017-03-13T01:42:46.084Z,25.6
2017-03-13T01:43:14.363Z,25.56
2017-03-13T01:43:42.712Z,25.52
2017-03-13T01:44:10.962Z,25.42
2017-03-13T01:44:39.300Z,25.34
2017-03-13T01:45:07.576Z,25.27
2017-03-13T01:45:36.228Z,25.24
2017-03-13T01:46:04.617Z,25.15
2017-03-13T01:46:32.806Z,25.07
2017-03-13T01:47:01.070Z,24.83
2017-03-13T01:47:29.651Z,24.83
2017-03-13T01:47:57.997Z,24.69
2017-03-13T01:48:26.299Z,24.55
2017-03-13T01:48:54.408Z,24.49
2017-03-13T01:49:22.668Z,24.45
2017-03-13T01:49:50.844Z,24.44
2017-03-13T01:50:19.152Z,24.39
2017-03-13T01:50:47.451Z,24.33
2017-03-13T01:51:15.649Z,24.17
2017-03-13T01:51:44.119Z,24.12
2017-03-13T01:52:12.499Z,23.97
2017-03-13T01:52:41.001Z,23.9
2017-03-13T01:53:09.239Z,23.89
2017-03-13T01:53:37.623Z,23.81
2017-03-13T01:54:05.853Z,23.77
2017-03-13T01:54:34.040Z,23.78
2017-03-13T01:55:02.363Z,23.77
2017-03-13T01:55:30.723Z,23.71
2017-03-13T01:55:59.127Z,23.6
2017-03-13T01:56:27.512Z,23.56
2017-03-13T01:56:55.628Z,23.5
2017-03-13T01:57:23.995Z,23.44
2017-03-13T01:57:52.188Z,23.32
2017-03-13T01:58:20.344Z,23.41
2017-03-13T01:58:48.582Z,23.22
2017-03-13T01:59:16.945Z,23.18
2017-03-13T01:59:45.262Z,23.15
2017-03-13T02:00:13.412Z,23.07
2017-03-13T02:00:41.668Z,23.04
2017-03-13T02:01:09.868Z,23.06
2017-03-13T02:01:38.406Z,22.97
2017-03-13T02:02:06.741Z,22.94
2017-03-13T02:02:34.832Z,23.07
2017-03-13T02:03:03.194Z,23.06
2017-03-13T02:03:31.546Z,23.04
2017-03-13T02:03:59.949Z,23.06
2017-03-13T02:04:28.170Z,23.09
2017-03-13T02:04:56.473Z,23
2017-03-13T02:05:24.757Z,22.99
2017-03-13T02:05:53.179Z,23.1
2017-03-13T02:06:21.440Z,23.03
2017-03-13T02:06:49.733Z,23.09
2017-03-13T02:07:18.505Z,22.94
2017-03-13T02:07:46.959Z,22.94
2017-03-13T02:08:15.308Z,22.89
2017-03-13T02:08:43.782Z,22.88
2017-03-13T02:09:12.182Z,22.91
2017-03-13T02:09:40.695Z,22.86
2017-03-13T02:10:09.155Z,22.81
2017-03-13T02:10:37.488Z,22.82
2017-03-13T02:11:05.994Z,22.76
2017-03-13T02:11:34.293Z,22.7
2017-03-13T02:12:02.577Z,22.69
2017-03-13T02:12:30.832Z,22.69
2017-03-13T02:12:59.045Z,22.7
2017-03-13T02:13:28.876Z,22.69
2017-03-13T02:13:57.155Z,22.73
2017-03-13T02:14:25.747Z,22.63
2017-03-13T02:14:54.114Z,22.69
2017-03-13T02:15:22.805Z,22.71
2017-03-13T02:15:51.191Z,22.66
2017-03-13T02:16:19.358Z,22.67
2017-03-13T02:16:47.668Z,22.63
2017-03-13T02:17:16.244Z,22.66
2017-03-13T02:17:44.732Z,22.59
2017-03-13T02:18:13.086Z,22.52
2017-03-13T02:18:41.258Z,22.49
2017-03-13T02:19:09.532Z,22.48
2017-03-13T02:19:37.935Z,22.41
2017-03-13T02:20:06.250Z,22.45
2017-03-13T02:20:34.619Z,22.41
2017-03-13T02:21:02.954Z,22.39
2017-03-13T02:21:31.287Z,22.34
2017-03-13T02:21:59.413Z,22.45
2017-03-13T02:22:27.635Z,22.38
2017-03-13T02:22:55.924Z,22.36
2017-03-13T02:23:24.275Z,22.24
2017-03-13T02:23:52.496Z,22.33
2017-03-13T02:24:20.813Z,22.2
2017-03-13T02:24:49.233Z,22.24
2017-03-13T02:25:17.731Z,22.23
2017-03-13T02:25:46.041Z,22.22
2017-03-13T02:26:14.369Z,22.33
2017-03-13T02:26:42.598Z,22.3
2017-03-13T02:27:10.795Z,22.22
2017-03-13T02:27:39.165Z,22.26
2017-03-13T02:28:07.659Z,22.24
2017-03-13T02:28:36.050Z,22.26
2017-03-13T02:29:04.486Z,22.23
2017-03-13T02:29:32.814Z,22.23
2017-03-13T02:30:01.070Z,22.24
2017-03-13T02:30:29.341Z,22.26
2017-03-13T02:30:57.685Z,22.24
2017-03-13T02:31:25.962Z,22.3
2017-03-13T02:31:54.240Z,22.26
2017-03-13T02:32:22.399Z,22.29
2017-03-13T02:32:50.670Z,22.23
2017-03-13T02:33:19.089Z,22.23
2017-03-13T02:33:47.464Z,22.24
2017-03-13T02:34:15.784Z,22.16
2017-03-13T02:34:44.128Z,22.18
2017-03-13T02:35:12.333Z,22.18
2017-03-13T02:35:40.741Z,22.27
2017-03-13T02:36:09.033Z,22.24
2017-03-13T02:36:37.434Z,22.24
2017-03-13T02:37:05.716Z,22.22
2017-03-13T02:37:33.903Z,22.22
2017-03-13T02:38:02.156Z,22.2
2017-03-13T02:38:30.316Z,22.26
2017-03-13T02:38:58.490Z,22.23
2017-03-13T02:39:26.674Z,22.26
2017-03-13T02:39:55.093Z,22.2
2017-03-13T02:40:23.432Z,22.22
2017-03-13T02:40:51.765Z,22.2
2017-03-13T02:41:20.090Z,22.2
2017-03-13T02:41:48.388Z,22.23
2017-03-13T02:42:16.436Z,22.27
2017-03-13T02:42:44.608Z,22.24
2017-03-13T02:43:12.942Z,22.2
2017-03-13T02:43:41.230Z,22.31
2017-03-13T02:44:09.442Z,22.3
2017-03-13T02:44:37.741Z,22.29
2017-03-13T02:45:05.931Z,22.3
2017-03-13T02:45:34.130Z,22.34
2017-03-13T02:46:02.503Z,22.34
2017-03-13T02:46:30.782Z,22.36
2017-03-13T02:46:59.152Z,22.41
2017-03-13T02:47:27.514Z,22.38
2017-03-13T02:47:55.744Z,22.48
2017-03-13T02:48:24.002Z,22.51
2017-03-13T02:48:52.168Z,22.44
2017-03-13T02:49:20.511Z,22.46
2017-03-13T02:49:48.833Z,22.45
2017-03-13T02:50:17.065Z,22.45
2017-03-13T02:50:45.424Z,22.46
2017-03-13T02:51:13.634Z,22.41
2017-03-13T02:51:41.899Z,22.52
2017-03-13T02:52:10.190Z,22.57
2017-03-13T02:52:38.505Z,22.52
2017-03-13T02:53:06.569Z,22.54
2017-03-13T02:53:34.953Z,22.54
2017-03-13T02:54:03.234Z,22.51
2017-03-13T02:54:31.482Z,22.45
2017-03-13T02:54:59.772Z,22.54
2017-03-13T02:55:27.997Z,22.49
2017-03-13T02:55:56.200Z,22.54
2017-03-13T02:56:24.361Z,22.45
2017-03-13T02:56:52.594Z,22.52
2017-03-13T02:57:20.788Z,22.49
2017-03-13T02:57:49.060Z,22.54
2017-03-13T02:58:17.291Z,22.45
2017-03-13T02:58:45.302Z,22.49
2017-03-13T02:59:13.480Z,22.46
2017-03-13T02:59:41.753Z,22.49
2017-03-13T03:00:10.142Z,22.51
2017-03-13T03:00:38.499Z,22.44
2017-03-13T03:01:06.754Z,22.46
2017-03-13T03:01:35.072Z,22.57
2017-03-13T03:02:03.298Z,22.45
2017-03-13T03:02:31.600Z,22.55
2017-03-13T03:02:59.947Z,22.45
2017-03-13T03:03:28.298Z,22.52
2017-03-13T03:03:56.794Z,22.54
2017-03-13T03:04:25.158Z,22.46
2017-03-13T03:04:53.330Z,22.54
2017-03-13T03:05:21.601Z,22.44
2017-03-13T03:05:49.937Z,22.54
2017-03-13T03:06:18.163Z,22.49
2017-03-13T03:06:46.269Z,22.48
2017-03-13T03:07:14.334Z,22.51
2017-03-13T03:07:42.795Z,22.57
2017-03-13T03:08:11.102Z,22.49
2017-03-13T03:08:39.463Z,22.49
2017-03-13T03:09:07.689Z,22.44
2017-03-13T03:09:36.073Z,22.46
2017-03-13T03:10:04.271Z,22.44
2017-03-13T03:10:32.388Z,22.45
2017-03-13T03:11:00.492Z,22.59
2017-03-13T03:11:28.740Z,22.57
2017-03-13T03:11:56.996Z,22.48
2017-03-13T03:12:25.233Z,22.41
2017-03-13T03:12:53.442Z,22.52
2017-03-13T03:13:21.689Z,22.54
2017-03-13T03:13:49.907Z,22.49
2017-03-13T03:14:18.145Z,22.57
2017-03-13T03:14:46.441Z,22.49
2017-03-13T03:15:14.696Z,22.51
2017-03-13T03:15:42.992Z,22.49
2017-03-13T03:16:11.051Z,22.55
2017-03-13T03:16:39.242Z,22.54
2017-03-13T03:17:07.455Z,22.48
2017-03-13T03:17:35.687Z,22.59
2017-03-13T03:18:03.966Z,22.55
2017-03-13T03:18:32.131Z,22.52
2017-03-13T03:19:00.253Z,22.52
2017-03-13T03:19:28.473Z,22.55
2017-03-13T03:19:56.807Z,22.55
2017-03-13T03:20:24.908Z,22.51
2017-03-13T03:20:53.248Z,22.57
2017-03-13T03:21:21.248Z,22.49
2017-03-13T03:21:49.435Z,22.55
2017-03-13T03:22:17.762Z,22.54
2017-03-13T03:22:50.170Z,22.51
2017-03-13T03:23:18.339Z,22.51
2017-03-13T03:23:46.645Z,22.49
2017-03-13T03:24:14.961Z,22.52
2017-03-13T03:24:43.251Z,22.55
2017-03-13T03:25:11.602Z,22.46
2017-03-13T03:25:39.924Z,22.49
2017-03-13T03:26:08.149Z,22.51
2017-03-13T03:26:36.312Z,22.51
2017-03-13T03:27:04.514Z,22.46
2017-03-13T03:27:32.817Z,22.48
2017-03-13T03:28:01.001Z,22.51
2017-03-13T03:28:29.289Z,22.52
2017-03-13T03:28:57.563Z,22.48
2017-03-13T03:29:25.784Z,22.51
2017-03-13T03:29:54.008Z,22.57
2017-03-13T03:30:22.238Z,22.49
2017-03-13T03:30:50.515Z,22.42
2017-03-13T03:31:18.713Z,22.52
2017-03-13T03:31:46.967Z,22.41
2017-03-13T03:32:15.187Z,22.44
2017-03-13T03:32:43.452Z,22.42
2017-03-13T03:33:11.724Z,22.48
2017-03-13T03:33:39.875Z,22.48
2017-03-13T03:34:08.163Z,22.46
2017-03-13T03:34:36.385Z,22.52
2017-03-13T03:35:04.577Z,22.42
2017-03-13T03:35:32.748Z,22.45
2017-03-13T03:36:01.024Z,22.38
2017-03-13T03:36:29.354Z,22.34
2017-03-13T03:36:57.508Z,22.34
2017-03-13T03:37:25.721Z,22.41
2017-03-13T03:37:54.108Z,22.42
2017-03-13T03:38:22.220Z,22.34
2017-03-13T03:38:50.401Z,22.38
2017-03-13T03:39:18.597Z,22.23
2017-03-13T03:39:46.782Z,22.27
2017-03-13T03:40:15.025Z,22.23
2017-03-13T03:40:43.309Z,22.26
2017-03-13T03:41:11.569Z,22.18
2017-03-13T03:41:39.663Z,22.24
2017-03-13T03:42:07.881Z,22.24
2017-03-13T03:42:36.169Z,22.18
2017-03-13T03:43:04.586Z,22.22
2017-03-13T03:43:32.850Z,22.22
2017-03-13T03:44:01.049Z,22.24
2017-03-13T03:44:29.243Z,22.24
2017-03-13T03:44:57.461Z,22.24
2017-03-13T03:45:25.709Z,22.24
2017-03-13T03:45:53.875Z,22.18
2017-03-13T03:46:22.130Z,22.2
2017-03-13T03:46:50.302Z,22.16
2017-03-13T03:47:18.498Z,22.15
2017-03-13T03:47:46.680Z,22.24
2017-03-13T03:48:14.969Z,22.29
2017-03-13T03:48:43.305Z,22.26
2017-03-13T03:49:11.446Z,22.3
2017-03-13T03:49:39.591Z,22.34
2017-03-13T03:50:07.865Z,22.31
2017-03-13T03:50:35.969Z,22.34
2017-03-13T03:51:04.186Z,22.39
2017-03-13T03:51:32.454Z,22.39
2017-03-13T03:52:00.742Z,22.38
2017-03-13T03:52:29.026Z,22.34
2017-03-13T03:52:57.420Z,22.36
2017-03-13T03:53:25.554Z,22.29
2017-03-13T03:53:53.689Z,22.31
2017-03-13T03:54:21.791Z,22.26
2017-03-13T03:54:49.833Z,22.26
2017-03-13T03:55:18.021Z,22.26
2017-03-13T03:55:46.195Z,22.2
2017-03-13T03:56:14.440Z,22.16
2017-03-13T03:56:42.502Z,22.2
2017-03-13T03:57:10.705Z,22.15
2017-03-13T03:57:39.005Z,22.14
2017-03-13T03:58:07.292Z,22.15
2017-03-13T03:58:35.448Z,22.15
2017-03-13T03:59:03.674Z,22.05
2017-03-13T03:59:31.797Z,22.11
2017-03-13T03:59:59.989Z,21.97
2017-03-13T04:00:28.211Z,22.07
2017-03-13T04:00:56.518Z,22
2017-03-13T04:01:24.765Z,22
2017-03-13T04:01:52.984Z,21.96
2017-03-13T04:02:21.131Z,21.96
2017-03-13T04:02:49.401Z,21.94
2017-03-13T04:03:17.781Z,22
2017-03-13T04:03:45.953Z,21.9
2017-03-13T04:04:14.050Z,21.94
2017-03-13T04:04:42.347Z,22.02
2017-03-13T04:05:10.553Z,21.97
2017-03-13T04:05:38.719Z,21.92
2017-03-13T04:06:06.925Z,21.93
2017-03-13T04:06:35.131Z,21.9
2017-03-13T04:07:03.346Z,21.9
2017-03-13T04:07:31.531Z,21.99
2017-03-13T04:07:59.611Z,22
2017-03-13T04:08:27.809Z,21.94
2017-03-13T04:08:55.960Z,22
2017-03-13T04:09:24.167Z,22.02
2017-03-13T04:09:52.334Z,21.94
2017-03-13T04:10:20.537Z,21.97
2017-03-13T04:10:48.801Z,21.97
2017-03-13T04:11:17.006Z,22.05
2017-03-13T04:11:45.132Z,22.04
2017-03-13T04:12:13.362Z,21.99
2017-03-13T04:12:41.460Z,22.14
2017-03-13T04:13:09.838Z,22.07
2017-03-13T04:13:38.023Z,21.96
2017-03-13T04:14:06.279Z,22.15
2017-03-13T04:14:34.318Z,22.12
2017-03-13T04:15:02.557Z,22.12
2017-03-13T04:15:30.811Z,22.15
2017-03-13T04:15:59.098Z,22.08
2017-03-13T04:16:27.268Z,22.11
2017-03-13T04:16:55.483Z,22.15
2017-03-13T04:17:23.776Z,22.14
2017-03-13T04:17:51.981Z,22.15
2017-03-13T04:18:20.484Z,22.14
2017-03-13T04:18:48.650Z,22.12
2017-03-13T04:19:16.879Z,22.15
2017-03-13T04:19:45.159Z,22.2
2017-03-13T04:20:13.449Z,22.2
2017-03-13T04:20:41.598Z,22.14
2017-03-13T04:21:09.867Z,22.2
2017-03-13T04:21:38.082Z,22.22
2017-03-13T04:22:06.259Z,22.15
2017-03-13T04:22:34.536Z,22.22
2017-03-13T04:23:02.720Z,22.18
2017-03-13T04:23:31.089Z,22.12
2017-03-13T04:23:59.289Z,22.15
2017-03-13T04:24:27.549Z,22.14
2017-03-13T04:24:55.870Z,22.12
2017-03-13T04:25:24.096Z,22.04
2017-03-13T04:25:52.362Z,22
2017-03-13T04:26:20.674Z,21.96
2017-03-13T04:26:48.986Z,22.02
2017-03-13T04:27:17.289Z,21.99
2017-03-13T04:27:45.505Z,22
2017-03-13T04:28:13.746Z,21.99
2017-03-13T04:28:41.943Z,21.97
2017-03-13T04:29:10.070Z,21.96
2017-03-13T04:29:38.256Z,21.96
2017-03-13T04:30:06.579Z,22.04
2017-03-13T04:30:34.786Z,21.83
2017-03-13T04:31:02.905Z,21.86
2017-03-13T04:31:31.163Z,21.86
2017-03-13T04:31:59.372Z,21.92
2017-03-13T04:32:27.560Z,21.83
2017-03-13T04:32:55.640Z,21.82
2017-03-13T04:33:23.982Z,21.83
2017-03-13T04:33:52.236Z,21.78
2017-03-13T04:34:20.515Z,21.83
2017-03-13T04:34:48.614Z,21.82
2017-03-13T04:35:16.879Z,21.76
2017-03-13T04:35:45.177Z,21.86
2017-03-13T04:36:13.439Z,21.76
2017-03-13T04:36:41.582Z,21.71
2017-03-13T04:37:09.825Z,21.8
2017-03-13T04:37:38.031Z,21.7
2017-03-13T04:38:06.288Z,21.76
2017-03-13T04:38:34.695Z,21.74
2017-03-13T04:39:02.996Z,21.7
2017-03-13T04:39:31.280Z,21.7
2017-03-13T04:39:59.594Z,21.73
2017-03-13T04:40:27.864Z,21.71
2017-03-13T04:40:56.169Z,21.73
2017-03-13T04:41:24.431Z,21.74
2017-03-13T04:41:52.664Z,21.76
2017-03-13T04:42:20.843Z,21.77
2017-03-13T04:42:49.139Z,21.77
2017-03-13T04:43:17.205Z,21.78
2017-03-13T04:43:45.465Z,21.8
2017-03-13T04:44:13.720Z,21.77
2017-03-13T04:44:41.804Z,21.85
2017-03-13T04:45:10.007Z,21.9
2017-03-13T04:45:38.168Z,21.89
2017-03-13T04:46:06.416Z,21.86
2017-03-13T04:46:34.659Z,21.86
2017-03-13T04:47:02.856Z,21.86
2017-03-13T04:47:30.986Z,21.9
2017-03-13T04:47:59.273Z,21.9
2017-03-13T04:48:27.640Z,21.82
2017-03-13T04:48:55.916Z,21.85
2017-03-13T04:49:24.201Z,21.86
2017-03-13T04:49:52.486Z,21.89
2017-03-13T04:50:20.711Z,21.94
2017-03-13T04:50:48.884Z,22
2017-03-13T04:51:17.147Z,21.97
2017-03-13T04:51:45.245Z,21.97
2017-03-13T04:52:13.526Z,21.99
2017-03-13T04:52:41.739Z,21.99
2017-03-13T04:53:09.940Z,22
2017-03-13T04:53:38.132Z,22
2017-03-13T04:54:06.261Z,22.04
2017-03-13T04:54:34.542Z,22
2017-03-13T04:55:02.816Z,21.99
2017-03-13T04:55:30.909Z,22.04
2017-03-13T04:55:59.129Z,21.99
2017-03-13T04:56:27.312Z,21.99
2017-03-13T04:56:55.444Z,22.02
2017-03-13T04:57:23.525Z,22.02
2017-03-13T04:57:51.669Z,22.09
2017-03-13T04:58:19.967Z,22.12
2017-03-13T04:58:48.320Z,22.09
2017-03-13T04:59:16.590Z,22.15
2017-03-13T04:59:44.881Z,22.07
2017-03-13T05:00:13.049Z,22.2
2017-03-13T05:00:41.308Z,22.08
2017-03-13T05:01:09.472Z,22.11
2017-03-13T05:01:37.597Z,22.09
2017-03-13T05:02:05.882Z,22.14
2017-03-13T05:02:34.121Z,22.12
2017-03-13T05:03:02.392Z,22.15
2017-03-13T05:03:30.570Z,22.11
2017-03-13T05:03:58.771Z,22.09
2017-03-13T05:04:26.940Z,22.2
2017-03-13T05:04:55.271Z,22.16
2017-03-13T05:05:23.499Z,22.14
2017-03-13T05:05:51.665Z,22.22
2017-03-13T05:06:19.960Z,22.12
2017-03-13T05:06:48.257Z,22.11
2017-03-13T05:07:16.462Z,22.16
2017-03-13T05:07:44.653Z,22.12
2017-03-13T05:08:12.867Z,22.11
2017-03-13T05:08:41.045Z,22.2
2017-03-13T05:09:09.293Z,22.16
2017-03-13T05:09:37.516Z,22.24
2017-03-13T05:10:05.745Z,22.22
2017-03-13T05:10:33.987Z,22.14
2017-03-13T05:11:02.304Z,22.24
2017-03-13T05:11:30.531Z,22.24
2017-03-13T05:11:58.817Z,22.15
2017-03-13T05:12:27.038Z,22.18
2017-03-13T05:12:55.242Z,22.22
2017-03-13T05:13:23.435Z,22.18
2017-03-13T05:13:51.772Z,22.23
2017-03-13T05:14:19.941Z,22.18
2017-03-13T05:14:48.145Z,22.2
2017-03-13T05:15:16.276Z,22.18
2017-03-13T05:15:44.538Z,22.15
2017-03-13T05:16:12.794Z,22.18
2017-03-13T05:16:40.978Z,22.23
2017-03-13T05:17:09.212Z,22.14
2017-03-13T05:17:37.399Z,22.23
2017-03-13T05:18:05.585Z,22.16
2017-03-13T05:18:33.745Z,22.2
2017-03-13T05:19:02.124Z,22.2
2017-03-13T05:19:30.400Z,22.14
2017-03-13T05:19:58.609Z,22.23
2017-03-13T05:20:26.717Z,22.14
2017-03-13T05:20:54.979Z,22.2
2017-03-13T05:21:23.181Z,22.2
2017-03-13T05:21:51.471Z,22.2
2017-03-13T05:22:19.772Z,22.15
2017-03-13T05:22:47.845Z,22.16
2017-03-13T05:23:16.068Z,22.23
2017-03-13T05:23:44.347Z,22.14
2017-03-13T05:24:12.640Z,22.16
2017-03-13T05:24:40.979Z,22.16
2017-03-13T05:25:09.302Z,22.14
2017-03-13T05:25:37.520Z,22.2
2017-03-13T05:26:05.592Z,22.18
2017-03-13T05:26:33.781Z,22.23
2017-03-13T05:27:01.993Z,22.16
2017-03-13T05:27:30.286Z,22.23
2017-03-13T05:27:58.551Z,22.16
2017-03-13T05:28:26.828Z,22.14
2017-03-13T05:28:55.222Z,22.16
2017-03-13T05:29:23.418Z,22.15
2017-03-13T05:29:51.704Z,22.15
2017-03-13T05:30:19.945Z,22.09
2017-03-13T05:30:48.208Z,22.08
2017-03-13T05:31:16.502Z,22.08
2017-03-13T05:31:44.811Z,22.12
2017-03-13T05:32:13.092Z,22.02
2017-03-13T05:32:41.277Z,21.94
2017-03-13T05:33:09.560Z,22.04
2017-03-13T05:33:37.753Z,22
2017-03-13T05:34:05.917Z,21.99
2017-03-13T05:34:34.070Z,22.12
2017-03-13T05:35:02.390Z,22
2017-03-13T05:35:30.504Z,22
2017-03-13T05:35:58.719Z,22.04
2017-03-13T05:36:27.017Z,21.96
2017-03-13T05:36:55.179Z,22.15
2017-03-13T05:37:23.438Z,22.12
2017-03-13T05:37:51.703Z,22.14
2017-03-13T05:38:19.892Z,22.16
2017-03-13T05:38:47.992Z,22.2
2017-03-13T05:39:16.491Z,22.12
2017-03-13T05:39:44.697Z,22.24
2017-03-13T05:40:12.830Z,22.15
2017-03-13T05:40:41.117Z,22.2
2017-03-13T05:41:09.348Z,22.24
2017-03-13T05:41:37.507Z,22.26
2017-03-13T05:42:05.664Z,22.2
2017-03-13T05:42:33.897Z,22.22
2017-03-13T05:43:02.117Z,22.15
2017-03-13T05:43:30.386Z,22.22
2017-03-13T05:43:58.988Z,22.24
2017-03-13T05:44:27.243Z,22.24
2017-03-13T05:44:55.465Z,22.24
2017-03-13T05:45:23.691Z,22.3
2017-03-13T05:45:51.907Z,22.22
2017-03-13T05:46:20.182Z,22.29
2017-03-13T05:46:48.449Z,22.22
2017-03-13T05:47:16.689Z,22.27
2017-03-13T05:47:44.991Z,22.2
2017-03-13T05:48:13.245Z,22.23
2017-03-13T05:48:41.526Z,22.22
2017-03-13T05:49:09.609Z,22.23
2017-03-13T05:49:37.899Z,22.15
2017-03-13T05:50:06.074Z,22.16
2017-03-13T05:50:34.216Z,22.16
2017-03-13T05:51:02.403Z,22.16
2017-03-13T05:51:30.592Z,22.18
2017-03-13T05:51:58.860Z,22.23
2017-03-13T05:52:26.916Z,22.22
2017-03-13T05:52:55.193Z,22.23
2017-03-13T05:53:23.497Z,22.2
2017-03-13T05:53:51.722Z,22.16
2017-03-13T05:54:20.080Z,22.2
2017-03-13T05:54:48.307Z,22.22
2017-03-13T05:55:16.496Z,22.26
2017-03-13T05:55:44.775Z,22.24
2017-03-13T05:56:13.050Z,22.26
2017-03-13T05:56:41.187Z,22.22
2017-03-13T05:57:09.202Z,22.16
2017-03-13T05:57:37.483Z,22.24
2017-03-13T05:58:05.577Z,22.12
2017-03-13T05:58:33.794Z,22.2
2017-03-13T05:59:02.051Z,22.16
2017-03-13T05:59:30.204Z,22.15
2017-03-13T05:59:58.340Z,22.14
2017-03-13T06:00:26.602Z,22.2
2017-03-13T06:00:54.713Z,22.15
2017-03-13T06:01:22.929Z,22.14
2017-03-13T06:01:51.038Z,22.15
2017-03-13T06:02:19.284Z,22.12
2017-03-13T06:02:47.449Z,22.14
2017-03-13T06:03:15.722Z,22.14
2017-03-13T06:03:43.836Z,22.2
2017-03-13T06:04:12.092Z,22.24
2017-03-13T06:04:40.328Z,22.18
2017-03-13T06:05:08.566Z,22.18
2017-03-13T06:05:36.872Z,22.2
2017-03-13T06:06:05.085Z,22.16
2017-03-13T06:06:33.334Z,22.15